SBOSBO JER / EGJJ
Speedbird OnlineSpeedbird Online JER / EGJJ

Jersey Airport
02:06 6.2°C

Location Jersey, Jersey
Latitude: 49.20790100097656
Longitude: -2.195509910583496
Web Airport Website | Wikipedia
Altitude 84 Meter / 277 Feet
Distance 304 KM / 189 Miles
from London.
Time Zone UTC 0 hours (Europe/Jersey)
Codes IATA: JER
ICAO: EGJJ
Runways
RunwayLength (m)Surface
081706Asphalt
261706Asphalt
Radio
TypeDescriptionFrequency
APPAPP120.3
ATISINFO112.2
ATISINFO129.725
GNDGND121.9
RDRRDR118.55
TWRTWR119.45
Live ATC
METAR EGJJ 270150Z AUTO 03015KT 360V070 9999 FEW023/// SCT032/// OVC038/// 06/03 Q1029
TAF TAF EGJJ 262258Z 2700/2709 03010KT 9999 FEW015 BKN034 TEMPO 2700/2705 03015G25KT PROB40 TEMPO 2700/2709 8000 SHRA
Weather As Of 27 Jan 2023 02:06
Description Overcast clouds
Wind 28 km/h from North-East (30°)
Cloud Cover 100%
Precipitation Rain: none, Snow: none
Sunrise 07:46
Sunset 16:55
Lounges Executive Lounge , Main Terminal
Rotations During the last 90 days there were
278 flights from LHR
1 flights from JER
281 flights to LHR
1 flights to JER



Support Speedbird Online

© 2017-2023 Speedbird Online